Time;durP1;ratioP1;P1;durP2;ratioP2;P2;SDS_P1;SDS_P2;PMS_P1;PMS_P2;Temp;Humidity;BMP_temperature;BMP_pressure;BME280_temperature;BME280_humidity;BME280_pressure;Samples;Min_cycle;Max_cycle;Signal;HPM_P1;HPM_P2
2023/09/04 00:00:42;;;;;;;0.00;0.00;;;;;;;19.33;67.02;101234.63;5014448;28;20026;-75
2023/09/04 00:03:07;;;;;;;0.00;0.00;;;;;;;19.35;66.91;101243.44;5007468;28;20490;-77
2023/09/04 00:05:34;;;;;;;0.00;0.00;;;;;;;19.25;67.45;101227.00;5005089;28;20029;-75
2023/09/04 00:07:59;;;;;;;0.00;0.00;;;;;;;19.29;67.56;101238.28;5018774;28;20028;-75
2023/09/04 00:10:25;;;;;;;0.00;0.00;;;;;;;19.28;67.66;101234.72;5003879;28;20030;-75
2023/09/04 00:12:50;;;;;;;0.00;0.00;;;;;;;19.29;67.53;101229.97;5018279;28;20129;-76
2023/09/04 00:15:16;;;;;;;0.00;0.00;;;;;;;19.28;67.59;101229.16;5019479;28;20042;-76
2023/09/04 00:17:41;;;;;;;0.00;0.00;;;;;;;19.26;68.43;101220.34;5014729;28;20022;-74
2023/09/04 00:20:08;;;;;;;0.00;0.00;;;;;;;19.24;68.01;101217.03;4980821;28;20483;-75
2023/09/04 00:22:33;;;;;;;0.00;0.00;;;;;;;19.27;68.70;101226.69;5017983;28;20026;-77
2023/09/04 00:24:59;;;;;;;0.00;0.00;;;;;;;19.23;69.04;101220.97;5015236;28;20029;-76
2023/09/04 00:27:26;;;;;;;0.00;0.00;;;;;;;19.23;69.15;101225.66;5011543;28;20487;-78
2023/09/04 00:29:51;;;;;;;0.00;0.00;;;;;;;19.23;68.98;101229.28;5017338;28;20029;-76
2023/09/04 00:32:17;;;;;;;0.00;0.00;;;;;;;19.19;69.49;101226.28;5004624;28;20108;-75
2023/09/04 00:34:42;;;;;;;0.00;0.00;;;;;;;19.17;69.55;101224.94;5014292;28;20025;-75
2023/09/04 00:37:09;;;;;;;0.00;0.00;;;;;;;19.15;69.74;101224.41;5003075;28;20618;-75
2023/09/04 00:39:36;;;;;;;0.00;0.00;;;;;;;19.17;69.94;101222.16;5007602;28;20033;-75
2023/09/04 00:42:01;;;;;;;0.00;0.00;;;;;;;19.15;70.22;101218.88;4985627;28;20029;-74
2023/09/04 00:44:26;;;;;;;0.00;0.00;;;;;;;19.16;70.64;101217.75;5017660;28;20040;-74
2023/09/04 00:46:52;;;;;;;0.00;0.00;;;;;;;19.17;70.80;101213.84;5011477;28;20031;-74
2023/09/04 00:49:18;;;;;;;0.00;0.00;;;;;;;19.15;71.22;101211.38;5022206;28;20028;-74
2023/09/04 00:51:44;;;;;;;0.00;0.00;;;;;;;19.11;71.33;101207.56;4990428;28;20091;-74
2023/09/04 00:54:10;;;;;;;0.00;0.00;;;;;;;19.09;71.04;101209.00;5022358;28;20391;-78
2023/09/04 00:56:36;;;;;;;0.00;0.00;;;;;;;19.05;71.21;101199.66;5017835;28;20032;-76
2023/09/04 00:59:01;;;;;;;0.00;0.00;;;;;;;19.07;71.66;101212.09;5015089;28;20124;-75
2023/09/04 01:01:28;;;;;;;0.00;0.00;;;;;;;19.05;71.75;101217.09;5019742;28;20025;-75
2023/09/04 01:03:54;;;;;;;0.00;0.00;;;;;;;19.01;71.69;101214.13;5003956;28;20033;-77
2023/09/04 01:06:19;;;;;;;0.00;0.00;;;;;;;18.95;72.21;101192.34;5010172;28;20033;-76
2023/09/04 01:08:45;;;;;;;0.00;0.00;;;;;;;19.00;71.90;101212.47;5015356;28;20044;-77
2023/09/04 01:11:29;;;;;;;0.00;0.00;;;;;;;18.98;72.15;101209.19;5020648;28;20439;-76
2023/09/04 01:13:56;;;;;;;0.00;0.00;;;;;;;18.95;72.71;101204.25;5007161;28;20072;-77
2023/09/04 01:16:22;;;;;;;0.00;0.00;;;;;;;18.93;73.05;101200.97;5022841;28;20025;-76
2023/09/04 01:18:50;;;;;;;0.00;0.00;;;;;;;18.96;73.37;101200.34;5006969;28;20061;-78
2023/09/04 01:21:16;;;;;;;0.00;0.00;;;;;;;18.99;72.88;101193.38;5020413;28;20055;-78
2023/09/04 01:23:42;;;;;;;0.00;0.00;;;;;;;18.94;72.94;101191.53;4995118;28;20033;-77
2023/09/04 01:26:13;;;;;;;0.00;0.00;;;;;;;19.02;73.54;101193.56;5018207;28;20049;-77
2023/09/04 01:29:22;;;;;;;0.00;0.00;;;;;;;18.99;73.34;101182.28;5013021;28;20038;-77
2023/09/04 01:31:54;;;;;;;0.00;0.00;;;;;;;19.00;73.23;101176.44;4942399;28;20045;-78
2023/09/04 01:34:25;;;;;;;0.00;0.00;;;;;;;19.01;73.50;101175.31;4951914;28;20041;-77
2023/09/04 01:36:54;;;;;;;0.00;0.00;;;;;;;19.00;73.59;101176.44;4990368;28;20070;-77
2023/09/04 01:39:21;;;;;;;0.00;0.00;;;;;;;19.05;73.78;101174.72;4990821;28;20021;-77
2023/09/04 01:41:47;;;;;;;0.00;0.00;;;;;;;19.10;73.51;101177.38;5011922;28;20498;-76
2023/09/04 01:44:14;;;;;;;0.00;0.00;;;;;;;19.11;73.45;101168.75;5014479;28;20033;-78
2023/09/04 01:46:39;;;;;;;0.00;0.00;;;;;;;19.15;73.67;101169.78;4994778;28;20438;-77
2023/09/04 01:49:05;;;;;;;0.00;0.00;;;;;;;19.15;73.63;101168.97;4994356;28;20049;-76
2023/09/04 01:51:30;;;;;;;0.00;0.00;;;;;;;19.15;74.10;101168.97;5007022;28;20091;-76
2023/09/04 01:53:56;;;;;;;0.00;0.00;;;;;;;19.12;74.03;101164.03;5032988;28;20099;-77
2023/09/04 01:56:21;;;;;;;0.00;0.00;;;;;;;19.07;74.22;101172.44;5012059;28;20026;-77
2023/09/04 01:58:46;;;;;;;0.00;0.00;;;;;;;18.98;74.57;101159.31;5008994;28;20084;-77
2023/09/04 02:01:12;;;;;;;0.00;0.00;;;;;;;18.97;74.60;101160.44;5011488;28;20860;-77
2023/09/04 02:03:38;;;;;;;0.00;0.00;;;;;;;18.95;74.28;101165.47;5000072;28;20041;-77
2023/09/04 02:06:04;;;;;;;0.00;0.00;;;;;;;18.88;75.31;101161.44;5010695;28;20029;-77
2023/09/04 02:08:30;;;;;;;0.00;0.00;;;;;;;18.84;75.15;101155.66;5022296;28;20365;-76
2023/09/04 02:10:58;;;;;;;0.00;0.00;;;;;;;18.79;74.85;101158.50;5025563;28;20450;-76
2023/09/04 02:13:23;;;;;;;0.00;0.00;;;;;;;18.75;75.53;101160.22;5025487;28;20029;-76
2023/09/04 02:15:49;;;;;;;0.00;0.00;;;;;;;18.66;75.61;101138.78;5026548;28;20147;-76
2023/09/04 02:18:15;;;;;;;0.00;0.00;;;;;;;18.80;75.80;101146.28;5010213;28;20095;-76
2023/09/04 02:20:40;;;;;;;0.00;0.00;;;;;;;18.83;75.32;101143.72;5002972;28;20025;-76
2023/09/04 02:23:06;;;;;;;0.00;0.00;;;;;;;18.84;75.47;101141.78;5019530;28;20133;-77
2023/09/04 02:25:31;;;;;;;0.00;0.00;;;;;;;18.73;75.69;101129.25;5011113;28;20081;-76
2023/09/04 02:27:57;;;;;;;0.00;0.00;;;;;;;18.72;75.95;101138.69;5001630;28;20044;-76
2023/09/04 02:30:22;;;;;;;0.00;0.00;;;;;;;18.69;76.33;101134.59;5004524;28;20080;-76
2023/09/04 02:32:48;;;;;;;0.00;0.00;;;;;;;18.63;76.29;101127.47;4991191;28;20230;-77
2023/09/04 02:35:16;;;;;;;0.00;0.00;;;;;;;18.66;76.23;101130.47;5003953;28;20030;-77
2023/09/04 02:37:42;;;;;;;0.00;0.00;;;;;;;18.69;76.65;101128.19;5015148;28;20056;-78
2023/09/04 02:40:09;;;;;;;0.00;0.00;;;;;;;18.75;76.25;101126.97;5015242;28;20037;-75
2023/09/04 02:42:35;;;;;;;0.00;0.00;;;;;;;18.76;76.60;101128.63;5014786;28;20065;-75
2023/09/04 02:45:00;;;;;;;0.00;0.00;;;;;;;18.72;76.52;101116.50;5008705;28;20045;-76
2023/09/04 02:47:25;;;;;;;0.00;0.00;;;;;;;18.71;76.64;101125.97;5013652;28;20026;-75
2023/09/04 02:49:51;;;;;;;0.00;0.00;;;;;;;18.69;76.94;101122.66;5015881;28;20625;-76
2023/09/04 02:52:17;;;;;;;0.00;0.00;;;;;;;18.67;77.49;101120.19;4993656;28;20132;-74
2023/09/04 02:54:43;;;;;;;0.00;0.00;;;;;;;18.62;77.48;101123.06;5020122;28;20033;-77
2023/09/04 02:57:08;;;;;;;0.00;0.00;;;;;;;18.53;77.65;101120.19;5020138;28;20029;-77
2023/09/04 02:59:35;;;;;;;0.00;0.00;;;;;;;18.45;77.42;101115.31;5021876;28;20025;-77
2023/09/04 03:02:01;;;;;;;0.00;0.00;;;;;;;18.44;77.92;101111.75;5000924;28;20104;-77
2023/09/04 03:04:27;;;;;;;0.00;0.00;;;;;;;18.43;77.91;101109.28;5009487;28;20091;-77
2023/09/04 03:06:53;;;;;;;0.00;0.00;;;;;;;18.41;77.74;101108.72;5019408;28;20022;-76
2023/09/04 03:09:18;;;;;;;0.00;0.00;;;;;;;18.44;77.64;101127.50;5001987;28;20088;-77
2023/09/04 03:11:43;;;;;;;0.00;0.00;;;;;;;18.41;77.94;101117.03;5016023;28;20025;-77
2023/09/04 03:14:09;;;;;;;0.00;0.00;;;;;;;18.45;78.29;101123.63;5016826;28;20079;-77
2023/09/04 03:16:34;;;;;;;0.00;0.00;;;;;;;18.43;78.23;101115.63;5021238;28;20041;-77
2023/09/04 03:19:00;;;;;;;0.00;0.00;;;;;;;18.49;77.92;101130.22;5005402;28;20029;-77
2023/09/04 03:21:25;;;;;;;0.00;0.00;;;;;;;18.37;78.16;101118.75;5010554;28;20116;-76
2023/09/04 03:23:51;;;;;;;0.00;0.00;;;;;;;18.43;78.18;101125.88;4975509;28;20408;-77
2023/09/04 03:26:17;;;;;;;0.00;0.00;;;;;;;18.29;78.64;101110.03;5017531;28;20396;-76
2023/09/04 03:28:42;;;;;;;0.00;0.00;;;;;;;18.35;78.73;101115.50;4987066;28;20030;-76
2023/09/04 03:31:13;;;;;;;0.00;0.00;;;;;;;18.31;78.29;101118.03;4990390;28;20386;-74
2023/09/04 03:33:39;;;;;;;0.00;0.00;;;;;;;18.20;78.60;101105.50;5011858;28;20048;-75
2023/09/04 03:36:04;;;;;;;0.00;0.00;;;;;;;18.24;78.93;101112.06;5012050;28;20476;-75
2023/09/04 03:38:30;;;;;;;0.00;0.00;;;;;;;18.27;78.70;101106.75;4981428;28;20500;-75
2023/09/04 03:40:55;;;;;;;0.00;0.00;;;;;;;18.27;78.97;101106.75;4986887;28;20030;-76
2023/09/04 03:43:20;;;;;;;0.00;0.00;;;;;;;18.33;78.72;101109.44;4998737;28;21542;-77
2023/09/04 03:45:46;;;;;;;0.00;0.00;;;;;;;18.38;78.44;101106.56;4991177;28;20069;-76
2023/09/04 03:48:11;;;;;;;0.00;0.00;;;;;;;18.43;78.57;101109.28;5007161;28;20987;-77
2023/09/04 03:50:39;;;;;;;0.00;0.00;;;;;;;18.43;78.21;101109.28;5016936;28;20061;-77
2023/09/04 03:53:05;;;;;;;0.00;0.00;;;;;;;18.49;78.54;101094.22;4997237;28;20498;-76
2023/09/04 03:55:30;;;;;;;0.00;0.00;;;;;;;18.50;78.85;101101.41;5012689;28;20116;-76
2023/09/04 03:57:55;;;;;;;0.00;0.00;;;;;;;18.44;78.84;101094.28;5021284;28;20037;-76
2023/09/04 04:00:22;;;;;;;0.00;0.00;;;;;;;18.47;78.46;101100.06;4991591;28;20075;-76
2023/09/04 04:02:48;;;;;;;0.00;0.00;;;;;;;18.38;78.57;101081.66;5018627;28;20032;-77
2023/09/04 04:05:15;;;;;;;0.00;0.00;;;;;;;18.37;79.20;101082.78;5032105;28;20029;-75
2023/09/04 04:07:42;;;;;;;0.00;0.00;;;;;;;18.39;78.95;101094.38;5013427;28;20038;-75
2023/09/04 04:10:08;;;;;;;0.00;0.00;;;;;;;18.39;78.56;101086.06;5026457;28;20033;-76
2023/09/04 04:12:33;;;;;;;0.00;0.00;;;;;;;18.36;78.83;101079.19;5019438;28;20459;-76
2023/09/04 04:15:03;;;;;;;0.00;0.00;;;;;;;18.44;79.14;101084.03;5027337;28;20114;-75
2023/09/04 04:17:29;;;;;;;0.00;0.00;;;;;;;18.46;78.89;101092.06;5008729;28;20021;-76
2023/09/04 04:19:55;;;;;;;0.00;0.00;;;;;;;18.43;78.47;101098.19;5018791;28;20035;-75
2023/09/04 04:22:21;;;;;;;0.00;0.00;;;;;;;18.36;78.64;101097.75;4988763;28;20379;-76
2023/09/04 04:24:47;;;;;;;0.00;0.00;;;;;;;18.41;79.05;101090.19;5006985;28;20026;-76
2023/09/04 04:27:12;;;;;;;0.00;0.00;;;;;;;18.41;78.70;101084.66;5020272;28;20073;-76
2023/09/04 04:29:39;;;;;;;0.00;0.00;;;;;;;18.33;78.94;101087.28;4990114;28;20040;-75
2023/09/04 04:32:05;;;;;;;0.00;0.00;;;;;;;18.24;79.33;101085.19;5024147;28;20033;-76
2023/09/04 04:34:31;;;;;;;0.00;0.00;;;;;;;18.20;78.83;101095.22;5023589;28;20013;-77
2023/09/04 04:36:56;;;;;;;0.00;0.00;;;;;;;18.13;79.67;101083.72;5015796;28;20025;-76
2023/09/04 04:39:22;;;;;;;0.00;0.00;;;;;;;18.06;79.85;101083.28;5001263;28;20463;-75
2023/09/04 04:41:50;;;;;;;0.00;0.00;;;;;;;17.99;79.79;101093.91;5008519;28;20017;-75
2023/09/04 04:44:16;;;;;;;0.00;0.00;;;;;;;17.92;79.62;101089.56;4989871;28;20034;-74
2023/09/04 04:46:41;;;;;;;0.00;0.00;;;;;;;17.83;80.41;101079.44;5019995;28;20051;-75
2023/09/04 04:49:07;;;;;;;0.00;0.00;;;;;;;17.80;79.96;101091.94;5024182;28;20112;-74
2023/09/04 04:51:32;;;;;;;0.00;0.00;;;;;;;17.69;80.78;101090.44;5020313;28;22174;-75
2023/09/04 04:54:00;;;;;;;0.00;0.00;;;;;;;17.57;80.72;101083.38;4989960;28;20109;-76
2023/09/04 04:56:27;;;;;;;0.00;0.00;;;;;;;17.57;80.88;101094.44;5018100;28;20368;-77
2023/09/04 04:58:52;;;;;;;0.00;0.00;;;;;;;17.56;81.66;101091.97;5006714;28;20069;-75
2023/09/04 05:01:17;;;;;;;0.00;0.00;;;;;;;17.48;81.13;101079.66;5015487;28;20754;-76
2023/09/04 05:03:43;;;;;;;0.00;0.00;;;;;;;17.47;81.36;101089.06;4975113;28;20354;-75
2023/09/04 05:06:08;;;;;;;0.00;0.00;;;;;;;17.36;81.36;101076.47;5008622;28;20108;-76
2023/09/04 05:08:34;;;;;;;0.00;0.00;;;;;;;17.47;81.32;101097.34;5000649;28;20045;-76
2023/09/04 05:11:08;;;;;;;0.00;0.00;;;;;;;17.42;82.01;101091.88;5026849;28;20033;-76
2023/09/04 05:13:33;;;;;;;;;;;;;;;17.49;81.47;101097.06;5004686;28;20068;-75
2023/09/04 05:16:03;;;;;;;0.00;0.00;;;;;;;17.48;82.05;101096.25;5010158;28;19917;-74
2023/09/04 05:18:29;;;;;;;0.00;0.00;;;;;;;17.52;81.78;101086.25;5011774;28;20075;-75
2023/09/04 05:20:55;;;;;;;0.00;0.00;;;;;;;17.56;81.70;101089.22;5020382;28;20029;-74
2023/09/04 05:23:20;;;;;;;0.00;0.00;;;;;;;17.66;81.59;101082.75;5015007;28;20115;-74
2023/09/04 05:25:51;;;;;;;0.00;0.00;;;;;;;17.70;81.26;101081.03;5018172;28;20085;-75
2023/09/04 05:28:16;;;;;;;0.00;0.00;;;;;;;17.78;81.08;101077.56;4993646;28;20037;-74
2023/09/04 05:30:42;;;;;;;0.00;0.00;;;;;;;17.89;80.84;101081.84;5020347;28;20538;-76
2023/09/04 05:33:07;;;;;;;0.00;0.00;;;;;;;18.02;80.84;101082.22;5016421;28;20064;-77
2023/09/04 05:35:33;;;;;;;0.00;0.00;;;;;;;18.06;80.59;101083.28;5014759;28;20026;-75
2023/09/04 05:37:58;;;;;;;0.00;0.00;;;;;;;18.11;80.50;101081.25;5015528;28;20095;-76
2023/09/04 05:40:24;;;;;;;0.00;0.00;;;;;;;18.08;80.19;101076.31;5017343;28;20034;-77
2023/09/04 05:42:50;;;;;;;0.00;0.00;;;;;;;18.03;80.78;101079.16;5004367;28;20065;-75
2023/09/04 05:45:16;;;;;;;0.00;0.00;;;;;;;18.00;80.69;101073.41;5019011;28;20057;-76
2023/09/04 05:47:42;;;;;;;0.00;0.00;;;;;;;18.02;80.50;101076.69;4990790;28;20049;-76
2023/09/04 05:50:08;;;;;;;0.00;0.00;;;;;;;18.08;80.49;101075.50;5000418;28;20030;-76
2023/09/04 05:52:34;;;;;;;0.00;0.00;;;;;;;18.07;80.28;101079.38;5012788;28;20064;-77
2023/09/04 05:54:59;;;;;;;0.00;0.00;;;;;;;18.04;80.50;101074.47;5003216;28;20037;-76
2023/09/04 05:57:25;;;;;;;0.00;0.00;;;;;;;18.12;80.55;101071.00;4997176;28;20042;-75
2023/09/04 05:59:51;;;;;;;0.00;0.00;;;;;;;18.10;80.56;101067.72;4997752;28;20026;-76
2023/09/04 06:02:17;;;;;;;0.00;0.00;;;;;;;18.11;80.23;101066.59;4983604;28;20080;-75
2023/09/04 06:04:42;;;;;;;0.00;0.00;;;;;;;18.12;80.51;101071.00;4997523;28;20061;-74
2023/09/04 06:07:10;;;;;;;0.00;0.00;;;;;;;18.13;80.30;101061.56;5016257;28;20029;-75
2023/09/04 06:09:39;;;;;;;0.00;0.00;;;;;;;18.23;80.17;101072.47;5004730;28;20107;-76
2023/09/04 06:12:08;;;;;;;0.00;0.00;;;;;;;18.21;80.47;101069.19;5015021;28;20639;-75
2023/09/04 06:14:34;;;;;;;0.00;0.00;;;;;;;18.28;80.15;101066.03;5019300;28;20396;-75
2023/09/04 06:16:59;;;;;;;0.00;0.00;;;;;;;18.30;80.08;101064.59;5012286;28;20021;-74
2023/09/04 06:19:25;;;;;;;0.00;0.00;;;;;;;18.40;79.88;101071.09;5020704;28;20459;-74
2023/09/04 06:21:50;;;;;;;0.00;0.00;;;;;;;18.51;79.70;101068.97;5016477;28;20516;-74
2023/09/04 06:24:16;;;;;;;0.00;0.00;;;;;;;18.62;79.70;101081.53;4999740;28;20033;-75
2023/09/04 06:26:41;;;;;;;0.00;0.00;;;;;;;18.66;79.58;101069.53;5000527;28;20496;-75
2023/09/04 06:29:09;;;;;;;0.00;0.00;;;;;;;18.86;78.82;101075.84;5015262;28;20034;-74
2023/09/04 06:31:38;;;;;;;0.00;0.00;;;;;;;19.01;78.18;101081.09;5002806;28;20042;-75
2023/09/04 06:34:03;;;;;;;0.00;0.00;;;;;;;19.09;78.27;101082.31;5007879;28;20498;-75
2023/09/04 06:36:29;;;;;;;0.00;0.00;;;;;;;19.17;77.69;101067.75;4988484;28;20029;-74
2023/09/04 06:38:55;;;;;;;0.00;0.00;;;;;;;19.28;77.97;101073.09;5018913;28;20033;-73
2023/09/04 06:41:21;;;;;;;0.00;0.00;;;;;;;19.29;77.65;101064.44;4999013;28;21936;-73
2023/09/04 06:43:47;;;;;;;0.00;0.00;;;;;;;19.33;77.53;101065.47;5011668;28;20117;-74
2023/09/04 06:46:12;;;;;;;0.00;0.00;;;;;;;19.45;77.59;101066.88;5014357;28;20021;-76
2023/09/04 06:48:38;;;;;;;0.00;0.00;;;;;;;19.59;76.59;101064.09;5001346;28;20080;-73
2023/09/04 06:51:04;;;;;;;0.00;0.00;;;;;;;19.73;76.34;101077.91;5000271;28;20380;-74
2023/09/04 06:53:29;;;;;;;0.00;0.00;;;;;;;19.87;75.94;101079.56;5022703;28;20365;-75
2023/09/04 06:55:55;;;;;;;0.00;0.00;;;;;;;19.96;75.88;101071.31;5004283;28;20136;-75
2023/09/04 06:58:20;;;;;;;0.00;0.00;;;;;;;20.04;75.74;101081.66;4994727;28;20041;-76
2023/09/04 07:00:46;;;;;;;0.00;0.00;;;;;;;20.16;75.50;101081.09;4991635;28;20503;-74
2023/09/04 07:03:11;;;;;;;0.00;0.00;;;;;;;20.26;74.83;101080.03;4997100;28;20029;-73
2023/09/04 07:05:37;;;;;;;0.00;0.00;;;;;;;20.38;74.61;101080.28;5024744;28;20492;-74
2023/09/04 07:08:10;;;;;;;0.00;0.00;;;;;;;20.42;74.28;101076.88;4999468;28;20030;-73
2023/09/04 07:10:38;;;;;;;0.00;0.00;;;;;;;20.52;74.16;101087.72;5022668;28;20033;-75
2023/09/04 07:13:03;;;;;;;0.00;0.00;;;;;;;20.59;74.03;101090.88;5026129;28;20037;-74
2023/09/04 07:15:29;;;;;;;0.00;0.00;;;;;;;20.73;73.64;101088.88;5008312;28;20072;-73
2023/09/04 07:17:54;;;;;;;0.00;0.00;;;;;;;20.83;73.46;101089.72;5010393;28;20029;-74
2023/09/04 07:20:19;;;;;;;0.00;0.00;;;;;;;20.96;73.13;101091.56;4983439;28;20376;-75
2023/09/04 07:22:45;;;;;;;0.00;0.00;;;;;;;21.03;72.69;101091.13;5017670;28;20033;-76
2023/09/04 07:25:11;;;;;;;0.00;0.00;;;;;;;21.08;72.18;101079.84;4998274;28;20081;-73
2023/09/04 07:27:37;;;;;;;0.00;0.00;;;;;;;21.23;71.95;101089.69;5017205;28;20017;-74
2023/09/04 07:30:03;;;;;;;0.00;0.00;;;;;;;21.34;71.93;101085.50;5014939;28;20026;-72
2023/09/04 07:32:29;;;;;;;0.00;0.00;;;;;;;21.42;71.55;101083.88;5006666;28;20049;-74
2023/09/04 07:34:56;;;;;;;0.00;0.00;;;;;;;21.54;70.98;101088.84;4986968;28;20034;-74
2023/09/04 07:37:26;;;;;;;0.00;0.00;;;;;;;21.71;70.81;101088.88;5021259;28;20029;-75
2023/09/04 07:39:52;;;;;;;0.00;0.00;;;;;;;21.83;69.83;101085.44;5013278;28;20471;-72
2023/09/04 07:42:18;;;;;;;0.00;0.00;;;;;;;21.95;69.46;101079.22;4998416;28;20033;-70
2023/09/04 07:44:43;;;;;;;0.00;0.00;;;;;;;22.03;69.76;101080.38;4987390;28;20025;-71
2023/09/04 07:47:08;;;;;;;0.00;0.00;;;;;;;22.08;68.68;101092.16;5017767;28;20037;-71
2023/09/04 07:49:34;;;;;;;0.00;0.00;;;;;;;22.06;68.72;101074.94;4994229;28;20037;-73
2023/09/04 07:51:59;;;;;;;0.00;0.00;;;;;;;22.20;69.02;101093.47;4989795;28;20072;-72
2023/09/04 07:54:25;;;;;;;0.00;0.00;;;;;;;22.24;68.63;101083.28;5000353;28;20843;-74
2023/09/04 07:56:50;;;;;;;0.00;0.00;;;;;;;22.32;68.23;101090.84;5007573;28;20028;-74
2023/09/04 07:59:16;;;;;;;0.00;0.00;;;;;;;22.44;67.92;101096.59;5006483;28;20802;-72
2023/09/04 08:01:41;;;;;;;0.00;0.00;;;;;;;22.41;67.66;101083.28;5016293;28;20033;-72
2023/09/04 08:04:07;;;;;;;0.00;0.00;;;;;;;22.67;67.72;101091.59;5018243;28;20058;-75
2023/09/04 08:06:33;;;;;;;0.00;0.00;;;;;;;22.78;67.56;101097.66;4999736;28;20479;-72
2023/09/04 08:08:58;;;;;;;0.00;0.00;;;;;;;22.78;67.48;101086.50;5023649;28;20463;-73
2023/09/04 08:11:24;;;;;;;0.00;0.00;;;;;;;22.88;66.88;101095.63;5012325;28;20737;-73
2023/09/04 08:13:49;;;;;;;0.00;0.00;;;;;;;23.00;67.15;101093.78;5020432;28;20029;-74
2023/09/04 08:16:14;;;;;;;0.00;0.00;;;;;;;23.38;66.07;101086.59;5031047;28;20463;-75
2023/09/04 08:18:40;;;;;;;0.00;0.00;;;;;;;24.67;63.89;101078.63;5028848;28;20029;-76
2023/09/04 08:21:05;;;;;;;0.00;0.00;;;;;;;27.22;57.46;101090.97;4993572;28;20037;-72
2023/09/04 08:23:31;;;;;;;0.00;0.00;;;;;;;29.97;49.75;101109.03;5026304;28;20036;-74
2023/09/04 08:26:00;;;;;;;0.00;0.00;;;;;;;32.33;44.05;101091.59;5007670;28;20048;-77
2023/09/04 08:28:26;;;;;;;0.00;0.00;;;;;;;34.14;40.16;101095.13;5032859;28;20026;-76
2023/09/04 08:30:51;;;;;;;0.00;0.00;;;;;;;35.78;37.54;101093.41;5015066;28;20475;-74
2023/09/04 08:33:17;;;;;;;0.00;0.00;;;;;;;37.13;35.29;101088.22;5026213;28;20152;-73
2023/09/04 08:35:42;;;;;;;0.00;0.00;;;;;;;38.09;33.48;101083.94;5010439;28;20026;-74
2023/09/04 08:38:10;;;;;;;0.00;0.00;;;;;;;38.72;32.12;101069.41;5023065;28;20037;-76
2023/09/04 08:40:39;;;;;;;0.00;0.00;;;;;;;39.82;30.91;101079.56;5012360;28;20040;-76
2023/09/04 08:43:06;;;;;;;0.00;0.00;;;;;;;40.58;29.16;101052.28;5028371;28;20049;-75
2023/09/04 08:45:35;;;;;;;0.00;0.00;;;;;;;41.31;28.01;101060.00;5021654;28;20072;-73
2023/09/04 08:48:03;;;;;;;0.00;0.00;;;;;;;42.79;26.59;101077.25;5019445;28;20388;-75
2023/09/04 08:50:30;;;;;;;0.00;0.00;;;;;;;44.02;24.96;101072.63;5012131;28;20029;-74
2023/09/04 08:52:55;;;;;;;0.00;0.00;;;;;;;45.13;23.58;101066.28;5026655;28;20059;-75
2023/09/04 08:55:21;;;;;;;0.00;0.00;;;;;;;45.85;22.52;101050.84;4994024;28;20033;-73
2023/09/04 08:57:47;;;;;;;0.00;0.00;;;;;;;46.29;21.60;101055.78;5022565;28;20053;-73
2023/09/04 09:00:14;;;;;;;0.00;0.00;;;;;;;46.43;21.66;101047.56;5023622;28;20068;-75
2023/09/04 09:02:42;;;;;;;0.00;0.00;;;;;;;46.68;21.27;101046.09;5017994;28;20155;-74
2023/09/04 09:05:09;;;;;;;0.00;0.00;;;;;;;46.70;20.40;101049.25;5020545;28;20055;-74
2023/09/04 09:07:37;;;;;;;0.00;0.00;;;;;;;46.61;20.74;101047.31;5011615;28;20112;-74
2023/09/04 09:10:07;;;;;;;0.00;0.00;;;;;;;47.23;19.58;101056.00;5018819;28;20018;-73
2023/09/04 09:12:32;;;;;;;0.00;0.00;;;;;;;47.15;19.81;101043.25;5012052;28;20025;-76
2023/09/04 09:14:59;;;;;;;0.00;0.00;;;;;;;47.98;19.58;101043.81;5009960;28;20041;-74
2023/09/04 09:17:25;;;;;;;0.00;0.00;;;;;;;48.52;18.92;101040.25;5011855;28;20029;-74
2023/09/04 09:19:51;;;;;;;0.00;0.00;;;;;;;48.31;18.26;101043.28;5030044;28;20021;-74
2023/09/04 09:22:19;;;;;;;0.00;0.00;;;;;;;48.68;18.96;101042.44;5021858;28;20442;-74
2023/09/04 09:24:50;;;;;;;0.00;0.00;;;;;;;49.14;18.54;101037.56;5018131;28;20053;-74
2023/09/04 09:27:20;;;;;;;0.00;0.00;;;;;;;49.76;17.99;101028.19;5013410;28;20048;-74
2023/09/04 09:29:47;;;;;;;0.00;0.00;;;;;;;50.19;17.33;101024.19;5029493;28;20035;-75
2023/09/04 09:32:13;;;;;;;0.00;0.00;;;;;;;49.87;17.41;101027.38;5028505;28;20036;-75
2023/09/04 09:34:39;;;;;;;0.00;0.00;;;;;;;49.96;17.36;101024.25;5024320;28;20022;-75
2023/09/04 09:37:07;;;;;;;0.00;0.00;;;;;;;49.58;17.42;101017.88;5034723;28;20064;-73
2023/09/04 09:39:33;;;;;;;0.00;0.00;;;;;;;49.84;17.59;101011.00;5023741;28;20041;-74
2023/09/04 09:42:00;;;;;;;0.00;0.00;;;;;;;50.57;17.21;101018.78;5025621;28;20467;-74
2023/09/04 09:44:33;;;;;;;0.00;0.00;;;;;;;51.05;16.13;101014.63;5011223;28;20084;-74
2023/09/04 09:46:59;;;;;;;0.00;0.00;;;;;;;50.62;16.65;101003.47;5018635;28;20530;-74
2023/09/04 09:49:25;;;;;;;0.00;0.00;;;;;;;50.58;16.48;101002.94;5028378;28;20029;-74
2023/09/04 09:51:54;;;;;;;0.00;0.00;;;;;;;50.75;16.67;101002.84;5022534;28;20110;-75
2023/09/04 09:54:49;;;;;;;0.00;0.00;;;;;;;51.77;15.46;101003.00;5009047;28;20036;-75
2023/09/04 09:57:16;;;;;;;0.00;0.00;;;;;;;52.05;15.40;101004.84;5004923;28;20145;-74
2023/09/04 09:59:44;;;;;;;0.00;0.00;;;;;;;52.40;15.25;100994.41;5034055;28;20049;-74
2023/09/04 10:02:17;;;;;;;0.00;0.00;;;;;;;53.05;14.67;100997.50;5018859;28;20056;-75
2023/09/04 10:04:44;;;;;;;0.00;0.00;;;;;;;53.21;14.88;100989.81;5010743;28;20069;-75
2023/09/04 10:07:11;;;;;;;0.00;0.00;;;;;;;53.58;14.29;100996.13;5001588;28;20042;-74
2023/09/04 10:09:54;;;;;;;0.00;0.00;;;;;;;53.60;14.47;100993.44;5019452;28;20030;-75
2023/09/04 10:12:28;;;;;;;0.00;0.00;;;;;;;54.42;14.34;100985.00;5022302;28;20121;-74
2023/09/04 10:14:57;;;;;;;0.00;0.00;;;;;;;54.12;13.71;100974.41;5017144;28;20030;-75
2023/09/04 10:17:46;;;;;;;0.00;0.00;;;;;;;54.29;13.72;100982.06;5019033;28;20029;-76
2023/09/04 10:20:13;;;;;;;0.00;0.00;;;;;;;54.46;13.22;100972.94;5030302;28;20041;-75
2023/09/04 10:22:45;;;;;;;0.00;0.00;;;;;;;54.01;13.64;100965.88;5030632;28;20527;-74
2023/09/04 10:25:38;;;;;;;0.00;0.00;;;;;;;54.48;13.38;100965.16;5031668;28;20091;-75
2023/09/04 10:28:18;;;;;;;0.00;0.00;;;;;;;54.30;13.11;100957.28;4995419;28;20068;-74
2023/09/04 10:30:51;;;;;;;0.00;0.00;;;;;;;54.81;13.00;100962.06;5022512;28;20033;-74
2023/09/04 10:33:17;;;;;;;0.00;0.00;;;;;;;55.41;12.72;100960.38;5014636;28;20040;-75
2023/09/04 10:35:42;;;;;;;0.00;0.00;;;;;;;55.63;12.56;100950.16;5011737;28;20113;-75
2023/09/04 10:38:09;;;;;;;0.00;0.00;;;;;;;55.54;12.47;100936.81;5013260;28;20419;-75
2023/09/04 10:40:35;;;;;;;0.00;0.00;;;;;;;55.76;11.96;100937.56;5026742;28;20029;-74
2023/09/04 10:43:03;;;;;;;0.00;0.00;;;;;;;55.39;12.42;100927.91;5020626;28;20051;-74
2023/09/04 10:45:30;;;;;;;0.00;0.00;;;;;;;55.08;12.48;100928.41;5011200;28;20490;-74
2023/09/04 10:47:56;;;;;;;0.00;0.00;;;;;;;55.17;12.31;100918.31;5020609;28;20036;-75
2023/09/04 10:50:28;;;;;;;0.00;0.00;;;;;;;54.97;12.38;100922.00;5013253;28;20116;-73
2023/09/04 10:52:59;;;;;;;0.00;0.00;;;;;;;55.01;12.35;100922.47;5009516;28;20030;-74
2023/09/04 10:55:24;;;;;;;0.00;0.00;;;;;;;54.82;12.07;100914.66;5016338;28;20076;-73
2023/09/04 10:57:54;;;;;;;0.00;0.00;;;;;;;55.41;12.11;100910.56;5013259;28;20061;-74
2023/09/04 11:00:29;;;;;;;0.00;0.00;;;;;;;56.28;11.75;100917.94;5007442;28;20464;-76
2023/09/04 11:02:55;;;;;;;0.00;0.00;;;;;;;56.97;11.18;100914.44;5020150;28;20088;-76
2023/09/04 11:05:21;;;;;;;0.00;0.00;;;;;;;56.35;11.12;100901.72;5009687;28;20034;-76
2023/09/04 11:07:46;;;;;;;0.00;0.00;;;;;;;55.82;11.62;100900.09;4996882;28;20034;-74
2023/09/04 11:10:17;;;;;;;0.00;0.00;;;;;;;56.36;11.44;100902.50;5012106;28;20072;-74
2023/09/04 11:12:44;;;;;;;0.00;0.00;;;;;;;55.95;11.42;100902.91;5021519;28;20025;-73
2023/09/04 11:15:12;;;;;;;0.00;0.00;;;;;;;55.49;11.16;100902.59;5018253;28;20025;-75
2023/09/04 11:17:40;;;;;;;0.00;0.00;;;;;;;55.41;11.21;100898.81;5020574;28;20044;-72
2023/09/04 11:20:06;;;;;;;0.00;0.00;;;;;;;55.87;11.40;100898.34;5009425;28;20022;-74
2023/09/04 11:22:33;;;;;;;0.00;0.00;;;;;;;57.16;10.72;100884.69;5017552;28;20041;-75